EWG461 EHAM-EDDM
Flight info
| Callsign | EWG461 |
|---|---|
| Flight time | N/A |
| Altitude | 33000 |
| Route | EDUPO Z739 MISGO DCT DOJOH DCT DODEN DCT TABUM DCT BOMBI T104 HAREM/N0417F270 T104 ROKIL ROKIL1B |
| Aircraft | B38M/M-SDE1FGHILORVWXY/HB1 |
Departure
| Time | 2026-05-07 18:26 |
|---|---|
| Airport | Amsterdam Airport Schiphol (EHAM) |
Arrival
| Time | N/A |
|---|---|
| Airport | Munich Airport (EDDM) |
| Time | Latitude | Longitude | Altitude | Speed | Heading |
|---|---|---|---|---|---|
| 2026-05-07 17:53 | 52.31226 | 4.74734 | 2 ft | 0 kts | 94° |
| 2026-05-07 18:15 | 52.31226 | 4.74741 | 2 ft | 2 kts | 92° |
| 2026-05-07 18:16 | 52.31226 | 4.74759 | 1 ft | 1 kts | 89° |
| 2026-05-07 18:16 | 52.31226 | 4.74681 | 2 ft | 17 kts | 93° |
| 2026-05-07 18:16 | 52.31229 | 4.74614 | 2 ft | 2 kts | 95° |
| 2026-05-07 18:16 | 52.31229 | 4.74618 | 2 ft | 6 kts | 95° |
| 2026-05-07 18:17 | 52.31234 | 4.74589 | 3 ft | 1 kts | 130° |
| 2026-05-07 18:17 | 52.31239 | 4.74578 | 3 ft | 1 kts | 160° |
| 2026-05-07 18:17 | 52.31236 | 4.74578 | 3 ft | 0 kts | 176° |
| 2026-05-07 18:18 | 52.31219 | 4.74569 | 3 ft | 5 kts | 212° |
| 2026-05-07 18:18 | 52.31208 | 4.74549 | 3 ft | 6 kts | 254° |
| 2026-05-07 18:19 | 52.31215 | 4.74553 | 3 ft | 9 kts | 291° |
| 2026-05-07 18:19 | 52.31269 | 4.74506 | 2 ft | 8 kts | 11° |
| 2026-05-07 18:19 | 52.31305 | 4.74555 | 2 ft | 7 kts | 44° |
| 2026-05-07 18:19 | 52.31361 | 4.74577 | 0 ft | 10 kts | 340° |
| 2026-05-07 18:20 | 52.31396 | 4.74476 | 0 ft | 11 kts | 270° |
| 2026-05-07 18:20 | 52.31389 | 4.74343 | 2 ft | 12 kts | 249° |
| 2026-05-07 18:20 | 52.31315 | 4.74279 | 1 ft | 14 kts | 190° |
| 2026-05-07 18:20 | 52.31201 | 4.74263 | -3 ft | 19 kts | 183° |
| 2026-05-07 18:21 | 52.31065 | 4.74251 | -2 ft | 21 kts | 184° |
| 2026-05-07 18:21 | 52.30909 | 4.74236 | -4 ft | 24 kts | 183° |
| 2026-05-07 18:21 | 52.30741 | 4.74218 | -2 ft | 24 kts | 186° |
| 2026-05-07 18:21 | 52.30693 | 4.74212 | -2 ft | 3 kts | 182° |
| 2026-05-07 18:22 | 52.30662 | 4.74210 | -2 ft | 8 kts | 180° |
| 2026-05-07 18:22 | 52.30598 | 4.74208 | -1 ft | 18 kts | 181° |
| 2026-05-07 18:22 | 52.30419 | 4.74194 | 4 ft | 16 kts | 185° |
| 2026-05-07 18:22 | 52.30363 | 4.74163 | 3 ft | 10 kts | 221° |
| 2026-05-07 18:23 | 52.30317 | 4.74056 | 2 ft | 13 kts | 232° |
| 2026-05-07 18:23 | 52.30242 | 4.73942 | -1 ft | 17 kts | 219° |
| 2026-05-07 18:23 | 52.30211 | 4.73771 | -1 ft | 16 kts | 306° |
| 2026-05-07 18:23 | 52.30278 | 4.73740 | -4 ft | 7 kts | 3° |
| 2026-05-07 18:24 | 52.30279 | 4.73740 | -4 ft | 0 kts | 3° |
| 2026-05-07 18:25 | 52.30285 | 4.73740 | -5 ft | 4 kts | 3° |
| 2026-05-07 18:25 | 52.30375 | 4.73751 | -4 ft | 22 kts | 3° |
| 2026-05-07 18:25 | 52.30765 | 4.73784 | 2 ft | 101 kts | 3° |
| 2026-05-07 18:26 | 52.31744 | 4.73872 | 32 ft | 175 kts | 2° |
| 2026-05-07 18:26 | 52.33066 | 4.74047 | 748 ft | 199 kts | 3° |
| 2026-05-07 18:26 | 52.34529 | 4.74230 | 1720 ft | 223 kts | 3° |
| 2026-05-07 18:26 | 52.36048 | 4.74891 | 2931 ft | 234 kts | 28° |
| 2026-05-07 18:27 | 52.37219 | 4.76739 | 4082 ft | 239 kts | 53° |
| 2026-05-07 18:27 | 52.38350 | 4.78803 | 4943 ft | 255 kts | 40° |
| 2026-05-07 18:27 | 52.39750 | 4.80758 | 5778 ft | 273 kts | 42° |
| 2026-05-07 18:27 | 52.40729 | 4.82217 | 6090 ft | 290 kts | 43° |
| 2026-05-07 18:28 | 52.42366 | 4.85809 | 6101 ft | 306 kts | 71° |